Time;durP1;ratioP1;P1;durP2;ratioP2;P2;SDS_P1;SDS_P2;PMS_P1;PMS_P2;Temp;Humidity;BMP_temperature;BMP_pressure;BME280_temperature;BME280_humidity;BME280_pressure;Samples;Min_cycle;Max_cycle;Signal;HPM_P1;HPM_P2
2023/07/09 00:01:18;;;;;;;5.53;5.03;;;25.80;54.70;;;28.48;38.80;101796.03;5055560;28;20198;-59
2023/07/09 00:03:51;;;;;;;6.10;5.50;;;25.80;54.80;;;28.43;39.10;101798.72;5072345;28;20270;-59
2023/07/09 00:06:19;;;;;;;5.70;5.20;;;25.70;54.90;;;28.41;38.95;101800.88;5075324;28;20200;-59
2023/07/09 00:08:49;;;;;;;5.67;5.17;;;25.70;55.00;;;28.37;39.02;101803.31;5074755;28;20268;-59
2023/07/09 00:11:18;;;;;;;7.60;4.97;;;25.70;55.20;;;28.37;39.09;101805.19;5075300;28;20216;-59
2023/07/09 00:13:45;;;;;;;5.63;5.17;;;25.60;55.40;;;28.32;39.28;101808.69;5075254;28;20182;-58
2023/07/09 00:16:23;;;;;;;6.13;5.37;;;25.60;55.40;;;28.29;39.15;101809.22;5075011;28;20258;-58
2023/07/09 00:18:51;;;;;;;6.43;5.70;;;25.60;55.50;;;28.26;38.89;101803.53;5074462;28;20197;-59
2023/07/09 00:21:21;;;;;;;5.60;5.10;;;25.60;55.30;;;28.23;39.18;101804.06;5074813;28;20193;-61
2023/07/09 00:23:50;;;;;;;6.33;5.57;;;25.50;55.20;;;28.17;39.26;101808.63;5074231;28;20213;-56
2023/07/09 00:26:23;;;;;;;5.60;5.10;;;25.50;55.30;;;28.14;39.23;101806.47;5074393;28;20224;-58
2023/07/09 00:28:50;;;;;;;5.73;5.23;;;25.50;55.50;;;28.13;39.04;101811.06;5074028;28;20630;-58
2023/07/09 00:31:17;;;;;;;5.73;5.17;;;25.40;55.40;;;28.11;39.02;101807.81;5074371;28;20288;-61
2023/07/09 00:33:46;;;;;;;7.77;4.83;;;25.50;55.50;;;28.08;39.16;101808.34;5074625;28;20223;-58
2023/07/09 00:36:25;;;;;;;5.77;5.27;;;25.40;55.40;;;28.08;39.32;101805.63;5074410;28;20189;-58
2023/07/09 00:38:53;;;;;;;5.53;5.03;;;25.40;55.60;;;28.07;38.87;101805.91;5074262;28;20644;-59
2023/07/09 00:41:23;;;;;;;5.97;5.13;;;25.40;55.50;;;28.05;38.58;101806.16;5074381;28;20297;-57
2023/07/09 00:43:52;;;;;;;5.97;5.50;;;25.40;55.50;;;28.04;38.82;101807.25;5073753;28;20262;-57
2023/07/09 00:47:17;;;;;;;6.20;5.70;;;25.30;55.40;;;27.89;38.88;101812.56;5074862;28;20333;-59
2023/07/09 00:49:46;;;;;;;6.17;5.63;;;25.40;55.40;;;27.93;39.28;101810.94;5074027;28;20212;-55
2023/07/09 00:52:27;;;;;;;6.47;5.30;;;25.40;55.60;;;27.89;39.32;101815.25;5074059;28;20200;-59
2023/07/09 00:54:59;;;;;;;5.60;5.20;;;25.30;56.40;;;27.91;39.11;101810.38;5074634;28;20185;-59
2023/07/09 00:57:29;;;;;;;6.07;5.57;;;25.30;55.70;;;27.90;39.11;101814.19;5073861;28;20284;-58
2023/07/09 01:00:09;;;;;;;5.80;5.30;;;25.20;55.70;;;27.88;39.11;101807.41;5065182;28;20244;-58
2023/07/09 01:02:38;;;;;;;5.63;5.13;;;25.20;55.70;;;27.85;39.54;101802.50;5053450;28;20213;-58
2023/07/09 01:05:06;;;;;;;5.47;4.97;;;25.20;55.70;;;27.82;39.29;101809.25;5054260;28;20247;-55
2023/07/09 01:07:34;;;;;;;5.87;5.27;;;25.20;55.70;;;27.80;38.87;101803.31;5054265;28;20658;-58
2023/07/09 01:10:02;;;;;;;5.60;4.93;;;25.10;55.80;;;27.80;38.84;101799.78;5052309;28;20254;-59
2023/07/09 01:12:30;;;;;;;5.63;5.10;;;25.10;55.70;;;27.79;38.91;101804.38;5054408;28;20567;-58
2023/07/09 01:14:59;;;;;;;5.90;5.40;;;25.10;55.60;;;27.76;38.98;101799.50;5054403;28;20198;-57
2023/07/09 01:17:28;;;;;;;5.93;5.43;;;25.10;55.60;;;27.76;39.02;101799.50;5053753;28;20193;-62
2023/07/09 01:19:56;;;;;;;4.97;4.47;;;25.10;55.60;;;27.73;38.66;101794.59;5053284;28;20263;-59
2023/07/09 01:22:27;;;;;;;5.83;5.33;;;25.10;55.40;;;27.71;39.00;101791.34;5053639;28;20743;-59
2023/07/09 01:25:02;;;;;;;5.33;4.83;;;25.00;55.80;;;27.69;39.03;101801.63;5053719;28;20185;-57
2023/07/09 01:27:37;;;;;;;6.13;5.57;;;25.00;55.80;;;27.69;38.83;101793.50;5054105;28;20170;-59
2023/07/09 01:30:09;;;;;;;5.20;4.80;;;25.00;55.80;;;27.66;38.67;101787.78;5053235;28;20206;-56
2023/07/09 01:32:38;;;;;;;5.63;5.13;;;25.00;55.50;;;27.64;38.16;101790.78;5053635;28;20606;-59
2023/07/09 01:35:06;;;;;;;6.57;5.97;;;25.00;55.20;;;27.59;38.01;101788.03;5053457;28;20189;-58
2023/07/09 01:37:38;;;;;;;5.80;5.30;;;24.90;54.40;;;27.55;37.63;101786.13;5053717;28;20185;-60
2023/07/09 01:40:09;;;;;;;5.67;5.17;;;24.90;54.20;;;27.53;37.88;101789.06;5053126;28;20217;-56
2023/07/09 01:42:57;;;;;;;5.60;5.20;;;24.90;53.90;;;27.49;37.15;101794.19;5052993;28;20209;-58
2023/07/09 01:45:25;;;;;;;5.47;4.93;;;24.90;52.90;;;27.48;37.13;101795.25;5053556;28;20568;-58
2023/07/09 01:47:55;;;;;;;5.10;4.70;;;24.90;52.80;;;27.49;36.95;101793.38;5053561;28;20714;-58
2023/07/09 01:50:24;;;;;;;5.97;5.37;;;24.90;52.70;;;27.51;36.55;101796.63;5054758;28;20236;-58
2023/07/09 01:52:55;;;;;;;5.63;5.20;;;24.90;52.50;;;27.50;36.34;101800.44;5072763;28;20205;-58
2023/07/09 01:55:22;;;;;;;6.23;5.67;;;24.90;52.00;;;27.51;36.89;101799.34;5073759;28;20224;-58
2023/07/09 01:57:51;;;;;;;5.70;5.20;;;24.90;52.10;;;27.50;36.21;101797.72;5073437;28;20188;-59
2023/07/09 02:00:19;;;;;;;6.20;5.60;;;24.90;51.80;;;27.48;36.56;101800.66;5061104;28;20232;-59
2023/07/09 02:02:47;;;;;;;6.13;5.50;;;24.90;51.60;;;27.46;36.28;101804.72;5053482;28;20228;-60
2023/07/09 02:05:18;;;;;;;6.43;5.83;;;24.90;51.60;;;27.44;36.33;101807.69;5053173;28;20182;-57
2023/07/09 02:07:46;;;;;;;5.33;4.80;;;24.90;51.60;;;27.43;36.37;101810.66;5053228;28;20256;-59
2023/07/09 02:10:17;;;;;;;5.60;5.17;;;24.90;51.80;;;27.43;36.47;101800.63;5052675;28;20213;-58
2023/07/09 02:12:44;;;;;;;6.27;5.50;;;24.90;51.70;;;27.41;36.29;101796.56;5053436;28;20184;-58
2023/07/09 02:15:12;;;;;;;4.97;4.57;;;24.90;51.50;;;27.39;36.59;101793.28;5056858;28;20193;-59
2023/07/09 02:17:39;;;;;;;5.57;5.07;;;24.90;51.50;;;27.38;36.07;101802.50;5057442;28;20199;-58
2023/07/09 02:20:08;;;;;;;7.07;6.37;;;24.90;51.40;;;27.36;36.69;101799.22;5056798;28;20216;-59
2023/07/09 02:22:37;;;;;;;6.03;5.40;;;24.80;51.50;;;27.32;36.29;101795.38;5056876;28;20232;-59
2023/07/09 02:25:06;;;;;;;5.37;4.97;;;24.80;51.40;;;27.28;36.55;101802.41;5057461;28;20201;-58
2023/07/09 02:27:36;;;;;;;5.53;5.13;;;24.80;51.30;;;27.26;36.50;101807.25;5057312;28;20194;-59
2023/07/09 02:30:06;;;;;;;6.37;5.73;;;24.80;51.50;;;27.26;36.52;101793.72;5057268;28;20636;-60
2023/07/09 02:32:33;;;;;;;4.67;4.27;;;24.70;51.40;;;27.26;36.38;101793.72;5057144;28;20686;-60
2023/07/09 02:35:00;;;;;;;5.43;4.93;;;24.70;51.40;;;27.27;36.73;101795.34;5057271;28;20197;-60
2023/07/09 02:37:27;;;;;;;5.20;4.80;;;24.70;51.60;;;27.28;36.81;101797.00;5057082;28;20186;-59
2023/07/09 02:39:54;;;;;;;5.53;4.87;;;24.70;51.70;;;27.28;36.37;101792.41;5056527;28;20217;-60
2023/07/09 02:42:23;;;;;;;4.77;4.43;;;24.70;52.00;;;27.30;36.71;101784.84;5057241;28;20190;-57
2023/07/09 02:44:51;;;;;;;5.13;4.63;;;24.60;52.20;;;27.29;36.60;101783.19;5056753;28;20190;-60
2023/07/09 02:47:19;;;;;;;6.93;6.03;;;24.60;52.20;;;27.29;37.01;101790.50;5057142;28;20229;-60
2023/07/09 02:49:46;;;;;;;6.27;5.50;;;24.60;52.30;;;27.28;36.73;101786.16;5056580;28;20998;-56
2023/07/09 02:52:13;;;;;;;5.80;5.10;;;24.60;52.40;;;27.27;36.96;101789.94;5074113;28;20208;-59
2023/07/09 02:54:40;;;;;;;5.90;5.40;;;24.60;52.40;;;27.25;37.31;101789.38;5076717;28;20189;-60
2023/07/09 02:57:08;;;;;;;5.43;4.87;;;24.60;52.60;;;27.21;37.16;101790.97;5076575;28;20189;-60
2023/07/09 02:59:35;;;;;;;5.07;4.67;;;24.50;52.50;;;27.19;37.16;101787.72;5070891;28;20210;-58
2023/07/09 03:02:04;;;;;;;5.37;4.83;;;24.50;52.60;;;27.18;36.66;101786.09;5056790;28;20209;-59
2023/07/09 03:04:31;;;;;;;5.13;4.60;;;24.50;52.60;;;27.16;36.71;101790.94;5056746;28;20645;-59
2023/07/09 03:07:02;;;;;;;5.83;5.20;;;24.50;52.50;;;27.13;36.96;101799.56;5056660;28;20190;-56
2023/07/09 03:09:29;;;;;;;6.57;5.87;;;24.40;52.50;;;27.10;37.33;101792.00;5056480;28;20202;-60
2023/07/09 03:11:56;;;;;;;5.57;5.17;;;24.40;52.50;;;27.05;36.81;101795.47;5056623;28;20273;-58
2023/07/09 03:14:24;;;;;;;5.17;4.70;;;24.40;52.50;;;27.00;37.52;101791.91;5056491;28;20643;-59
2023/07/09 03:16:51;;;;;;;6.67;5.37;;;24.40;52.50;;;26.99;36.78;101792.97;5056644;28;20201;-60
2023/07/09 03:19:21;;;;;;;6.23;5.40;;;24.40;52.60;;;26.96;37.65;101791.59;5055849;28;20698;-60
2023/07/09 03:21:48;;;;;;;6.10;5.50;;;24.40;52.70;;;26.92;37.08;101789.66;5055857;28;20273;-60
2023/07/09 03:24:18;;;;;;;5.90;5.40;;;24.30;52.70;;;26.90;37.11;101799.91;5056161;28;20245;-60
2023/07/09 03:26:46;;;;;;;4.93;4.53;;;24.30;52.60;;;26.88;37.61;101796.66;5055096;28;20196;-60
2023/07/09 03:29:13;;;;;;;5.27;4.87;;;24.30;52.70;;;26.86;37.74;101794.22;5055832;28;20218;-60
2023/07/09 03:31:40;;;;;;;5.83;4.80;;;24.30;52.90;;;26.88;37.21;101796.66;5056170;28;20608;-56
2023/07/09 03:34:07;;;;;;;4.77;4.37;;;24.30;53.00;;;26.90;37.17;101794.50;5056036;28;20197;-57
2023/07/09 03:36:39;;;;;;;5.50;5.00;;;24.20;53.00;;;26.90;37.86;101792.63;5056055;28;20240;-59
2023/07/09 03:39:07;;;;;;;5.03;4.63;;;24.20;53.30;;;26.92;37.69;101803.16;5055811;28;20245;-60
2023/07/09 03:41:34;;;;;;;5.07;4.67;;;24.20;53.30;;;26.92;37.58;101808.56;5056008;28;20281;-59
2023/07/09 03:44:01;;;;;;;6.00;5.00;;;24.20;53.20;;;26.92;37.45;101808.56;5055556;28;20701;-59
2023/07/09 03:46:28;;;;;;;5.07;4.67;;;24.20;53.30;;;26.92;37.44;101803.16;5055805;28;20273;-59
2023/07/09 03:48:57;;;;;;;4.80;4.33;;;24.20;53.20;;;26.91;37.57;101807.75;5073975;28;20221;-60
2023/07/09 03:51:24;;;;;;;5.00;4.40;;;24.20;53.20;;;26.92;37.22;101811.28;5075593;28;20190;-59
2023/07/09 03:53:53;;;;;;;4.93;4.53;;;24.20;53.20;;;26.92;37.15;101811.28;5075926;28;20189;-60
2023/07/09 03:56:20;;;;;;;5.33;4.70;;;24.20;53.20;;;26.91;37.02;101801.56;5075441;28;20276;-59
2023/07/09 03:58:47;;;;;;;4.57;4.23;;;24.20;53.10;;;26.92;37.60;101803.16;5075312;28;20190;-59
2023/07/09 04:01:16;;;;;;;4.83;4.37;;;24.10;53.10;;;26.92;36.94;101809.41;5055908;28;20202;-59
2023/07/09 04:03:43;;;;;;;4.83;4.43;;;24.10;53.20;;;26.92;37.24;101811.28;5055363;28;20209;-60
2023/07/09 04:06:10;;;;;;;5.90;5.40;;;24.10;53.20;;;26.92;37.05;101808.56;5055465;28;20216;-59
2023/07/09 04:08:37;;;;;;;5.23;4.73;;;24.20;53.30;;;26.90;37.42;101805.31;5055089;28;20186;-58
2023/07/09 04:11:05;;;;;;;5.97;5.03;;;24.20;53.20;;;26.89;37.82;101809.91;5055559;28;20190;-60
2023/07/09 04:13:33;;;;;;;4.20;3.90;;;24.20;53.30;;;26.93;37.27;101815.63;5055396;28;20212;-60
2023/07/09 04:16:00;;;;;;;5.20;4.80;;;24.20;53.20;;;26.94;37.37;101819.94;5055400;28;20198;-59
2023/07/09 04:18:28;;;;;;;5.43;5.03;;;24.20;53.30;;;26.92;37.22;101808.56;5055360;28;20247;-58
2023/07/09 04:20:54;;;;;;;5.47;4.50;;;24.20;53.10;;;26.92;37.43;101811.28;5055160;28;20566;-60
2023/07/09 04:23:21;;;;;;;4.90;4.50;;;24.20;53.10;;;26.92;37.39;101809.41;5054821;28;20212;-60
2023/07/09 04:25:48;;;;;;;6.00;5.13;;;24.20;53.20;;;26.94;37.76;101811.84;5055267;28;20194;-59
2023/07/09 04:28:17;;;;;;;5.27;4.43;;;24.30;53.50;;;26.95;37.62;101814.28;5054109;28;20225;-59
2023/07/09 04:30:48;;;;;;;5.10;4.70;;;24.30;53.70;;;26.95;37.86;101814.28;5054525;28;20214;-59
2023/07/09 04:33:17;;;;;;;4.83;4.43;;;24.20;53.50;;;26.96;37.48;101815.91;5054615;28;20273;-60
2023/07/09 04:35:46;;;;;;;5.10;4.70;;;24.30;53.60;;;26.94;36.95;101807.25;5054799;28;20190;-60
2023/07/09 04:38:13;;;;;;;5.03;4.63;;;24.30;53.10;;;26.93;37.17;101810.22;5054732;28;20193;-60
2023/07/09 04:40:41;;;;;;;4.97;4.57;;;24.30;53.10;;;26.94;37.82;101806.44;5054838;28;20225;-59
2023/07/09 04:43:08;;;;;;;5.40;4.90;;;24.30;53.30;;;26.94;37.35;101801.03;5056019;28;20217;-59
2023/07/09 04:45:36;;;;;;;4.90;4.40;;;24.30;53.40;;;26.98;37.96;101802.16;5074565;28;20224;-59
2023/07/09 04:48:05;;;;;;;5.33;4.93;;;24.30;53.70;;;27.00;38.06;101805.41;5074656;28;20206;-56
2023/07/09 04:50:32;;;;;;;4.90;4.50;;;24.30;53.90;;;27.00;37.92;101800.00;5073898;28;20213;-58
2023/07/09 04:53:00;;;;;;;5.30;4.90;;;24.30;54.10;;;27.00;37.84;101808.13;5074670;28;20707;-57
2023/07/09 04:55:27;;;;;;;4.70;4.30;;;24.30;54.30;;;27.02;38.04;101803.25;5074383;28;20642;-59
2023/07/09 04:57:54;;;;;;;5.57;4.77;;;24.30;54.50;;;27.03;38.62;101805.69;5074249;28;20200;-59
2023/07/09 05:00:21;;;;;;;6.00;5.50;;;24.40;54.70;;;27.05;38.22;101808.16;5062233;28;20313;-58
2023/07/09 05:02:49;;;;;;;4.93;4.53;;;24.40;55.00;;;27.07;38.26;101811.41;5054314;28;20190;-56
2023/07/09 05:05:16;;;;;;;5.37;4.80;;;24.40;54.80;;;27.07;38.17;101811.41;5054381;28;20300;-60
2023/07/09 05:07:43;;;;;;;5.27;4.77;;;24.40;54.80;;;27.06;38.38;101804.38;5053768;28;20273;-60
2023/07/09 05:10:11;;;;;;;5.27;4.77;;;24.40;54.90;;;27.09;38.89;101799.28;5053890;28;20210;-59
2023/07/09 05:12:50;;;;;;;5.57;5.17;;;24.40;55.10;;;27.08;38.54;101802.22;5053876;28;20185;-59
2023/07/09 05:15:18;;;;;;;5.87;5.27;;;24.40;55.30;;;27.10;39.05;101808.22;5054206;28;20182;-58
2023/07/09 05:17:46;;;;;;;7.07;5.53;;;24.40;55.30;;;27.12;39.03;101803.34;5053974;28;20244;-58
2023/07/09 05:20:15;;;;;;;5.80;5.27;;;24.40;55.20;;;27.14;38.64;101806.63;5053516;28;20220;-60
2023/07/09 05:22:43;;;;;;;4.80;4.40;;;24.40;55.50;;;27.18;38.33;101796.91;5054014;28;20248;-60
2023/07/09 05:25:10;;;;;;;5.87;5.10;;;24.50;55.40;;;27.20;38.79;101795.56;5053957;28;20224;-59
2023/07/09 05:27:37;;;;;;;5.27;4.83;;;24.50;55.60;;;27.22;38.46;101793.41;5053967;28;20277;-59
2023/07/09 05:30:06;;;;;;;5.47;4.97;;;24.50;55.60;;;27.23;38.55;101805.06;5053578;28;20292;-60
2023/07/09 05:32:33;;;;;;;4.97;4.57;;;24.50;55.50;;;27.25;39.08;101798.31;5052567;28;20198;-59
2023/07/09 05:35:01;;;;;;;5.40;5.00;;;24.50;55.60;;;27.28;39.07;101807.81;5053678;28;20217;-59
2023/07/09 05:37:29;;;;;;;5.63;5.07;;;24.60;55.70;;;27.31;38.19;101808.13;5053362;28;20530;-61
2023/07/09 05:39:56;;;;;;;6.07;5.17;;;24.60;55.30;;;27.34;38.11;101806.75;5059443;28;20263;-59
2023/07/09 05:42:23;;;;;;;5.17;4.77;;;24.60;55.20;;;27.33;37.82;101803.25;5073993;28;20288;-59
2023/07/09 05:44:51;;;;;;;5.03;4.63;;;24.60;54.50;;;27.34;37.66;101810.28;5072805;28;20208;-59
2023/07/09 05:47:18;;;;;;;5.20;4.70;;;24.70;53.60;;;27.32;37.13;101798.09;5073677;28;20185;-62
2023/07/09 05:49:49;;;;;;;7.77;5.00;;;24.70;53.20;;;27.24;37.32;101806.69;5071646;28;20213;-59
2023/07/09 05:52:16;;;;;;;5.60;5.10;;;24.70;53.00;;;27.22;37.36;101804.22;5073400;28;20197;-59
2023/07/09 05:54:45;;;;;;;6.33;5.33;;;24.70;52.80;;;27.20;37.25;101817.19;5073636;28;20275;-59
2023/07/09 05:57:12;;;;;;;6.70;4.70;;;24.70;52.80;;;27.25;37.06;101816.44;5073700;28;20518;-59
2023/07/09 05:59:39;;;;;;;5.30;4.60;;;24.70;52.80;;;27.28;36.79;101818.63;5069927;28;20255;-58
2023/07/09 06:02:11;;;;;;;5.07;4.67;;;24.70;52.80;;;27.30;37.24;101820.00;5073430;28;20243;-58
2023/07/09 06:04:38;;;;;;;6.67;5.10;;;24.80;52.90;;;27.36;36.96;101832.47;5073328;28;20197;-59
2023/07/09 06:07:05;;;;;;;5.93;5.23;;;24.80;52.90;;;27.38;37.54;101821.44;5073408;28;20221;-59
2023/07/09 06:09:32;;;;;;;5.87;5.40;;;24.90;53.20;;;27.44;37.19;101825.81;5072907;28;20700;-60
2023/07/09 06:12:01;;;;;;;7.27;5.20;;;24.90;53.30;;;27.53;37.30;101816.94;5073476;28;20228;-60
2023/07/09 06:14:28;;;;;;;5.93;5.43;;;24.90;53.40;;;27.64;37.28;101828.66;5073042;28;20189;-60
2023/07/09 06:16:55;;;;;;;6.00;5.50;;;25.00;53.40;;;27.70;37.37;101824.91;5072794;28;20300;-64
2023/07/09 06:19:22;;;;;;;5.53;5.10;;;25.10;53.40;;;27.76;37.15;101821.16;5072765;28;20213;-59
2023/07/09 06:21:49;;;;;;;4.63;4.33;;;25.10;53.80;;;27.73;37.02;101820.84;5073529;28;20193;-59
2023/07/09 06:24:16;;;;;;;6.33;5.73;;;25.10;52.90;;;27.74;37.21;101817.88;5073352;28;20256;-58
2023/07/09 06:26:43;;;;;;;5.60;5.10;;;25.20;53.10;;;27.79;37.30;101814.41;5073226;28;20257;-60
2023/07/09 06:29:11;;;;;;;5.77;5.27;;;25.20;53.00;;;27.85;37.23;101814.16;5072819;28;20209;-58
2023/07/09 06:31:40;;;;;;;6.43;5.37;;;25.30;53.20;;;27.91;36.99;101815.81;5073210;28;20272;-58
2023/07/09 06:34:08;;;;;;;5.50;5.00;;;25.30;53.10;;;27.98;37.11;101810.97;5072921;28;20191;-56
2023/07/09 06:36:35;;;;;;;5.60;5.07;;;25.40;53.20;;;28.05;37.13;101810.78;5072930;28;20204;-59
2023/07/09 06:39:03;;;;;;;7.60;5.30;;;25.40;53.10;;;28.16;36.81;101809.72;5073019;28;20258;-60
2023/07/09 06:41:32;;;;;;;5.50;5.00;;;25.50;53.10;;;28.28;36.64;101820.34;5073230;28;20197;-59
2023/07/09 06:43:59;;;;;;;8.03;5.00;;;25.60;52.80;;;28.29;36.43;101813.84;5072410;28;20296;-60
2023/07/09 06:46:27;;;;;;;5.47;4.97;;;25.60;52.30;;;28.34;36.37;101816.53;5072958;28;20197;-59
2023/07/09 06:48:54;;;;;;;5.40;4.83;;;25.70;52.20;;;28.39;36.30;101820.09;5072292;28;20217;-61
2023/07/09 06:51:21;;;;;;;5.60;5.20;;;25.70;52.20;;;28.45;36.41;101810.09;5072583;28;20280;-56
2023/07/09 06:53:50;;;;;;;7.63;5.60;;;25.80;52.40;;;28.57;36.27;101810.69;5072535;28;20670;-59
2023/07/09 06:56:17;;;;;;;5.20;4.77;;;25.80;52.30;;;28.70;35.95;101816.41;5072267;28;20248;-57
2023/07/09 06:58:45;;;;;;;9.30;5.17;;;25.90;52.40;;;28.80;36.33;101821.03;5072391;28;20189;-60
2023/07/09 07:01:12;;;;;;;5.50;5.00;;;26.00;52.40;;;28.94;35.91;101815.91;5055023;28;20198;-58
2023/07/09 07:03:41;;;;;;;5.30;4.53;;;26.10;52.20;;;29.07;35.75;101815.38;5056238;28;20243;-57
2023/07/09 07:06:08;;;;;;;5.67;5.13;;;26.20;52.20;;;29.22;35.53;101813.50;5056363;28;20200;-59
2023/07/09 07:08:35;;;;;;;5.50;5.00;;;26.30;52.10;;;29.34;35.76;101818.63;5056194;28;20255;-59
2023/07/09 07:11:05;;;;;;;5.13;4.73;;;26.50;52.00;;;29.48;35.20;101812.38;5056261;28;20193;-59
2023/07/09 07:13:34;;;;;;;5.17;4.77;;;26.60;51.40;;;29.57;34.77;101814.53;5056545;28;20198;-59
2023/07/09 07:16:03;;;;;;;5.57;5.10;;;26.70;50.70;;;29.60;34.34;101825.66;5055720;28;20240;-60
2023/07/09 07:18:30;;;;;;;5.63;4.80;;;26.70;50.20;;;29.63;34.51;101813.44;5055756;28;20190;-59
2023/07/09 07:20:59;;;;;;;5.60;5.10;;;26.80;50.20;;;29.65;34.52;101816.69;5056164;28;20190;-59
2023/07/09 07:23:27;;;;;;;5.60;5.03;;;26.90;50.20;;;29.74;34.76;101817.78;5056183;28;20216;-56
2023/07/09 07:25:54;;;;;;;6.07;5.23;;;26.90;50.30;;;29.87;34.66;101809.88;5056047;28;20647;-60
2023/07/09 07:28:22;;;;;;;6.07;5.47;;;27.00;50.20;;;30.01;34.32;101815.53;5056360;28;20186;-63
2023/07/09 07:30:59;;;;;;;5.27;4.87;;;27.20;50.10;;;30.11;34.33;101810.06;5055671;28;20214;-57
2023/07/09 07:33:26;;;;;;;5.73;5.23;;;27.30;49.70;;;30.22;34.11;101808.09;5070146;28;20280;-59
2023/07/09 07:35:53;;;;;;;5.60;5.03;;;27.40;49.20;;;30.31;33.49;101806.44;5075381;28;20185;-55
2023/07/09 07:38:41;;;;;;;5.13;4.73;;;27.50;48.90;;;30.38;33.06;101810.47;5075566;28;20609;-57
2023/07/09 07:41:08;;;;;;;5.83;5.33;;;27.60;48.60;;;30.47;33.75;101808.00;5075617;28;20661;-57
2023/07/09 07:43:35;;;;;;;5.00;4.50;;;27.70;48.70;;;30.61;33.80;101809.00;5075358;28;20227;-58
2023/07/09 07:46:02;;;;;;;4.53;4.13;;;27.80;48.90;;;30.77;33.24;101805.06;5074224;28;20209;-58
2023/07/09 07:48:30;;;;;;;5.37;4.90;;;27.90;48.90;;;30.88;33.41;101814.00;5075264;28;20189;-58
2023/07/09 07:51:01;;;;;;;5.77;5.27;;;28.00;48.40;;;30.95;33.31;101814.50;5075504;28;20212;-58
2023/07/09 07:53:30;;;;;;;6.17;5.57;;;28.10;48.20;;;31.00;32.45;101820.69;5075054;28;20280;-56
2023/07/09 07:56:01;;;;;;;5.83;5.27;;;28.20;47.60;;;31.09;32.45;101823.66;5075287;28;20680;-55
2023/07/09 07:58:30;;;;;;;6.17;5.57;;;28.30;47.60;;;31.13;32.65;101820.06;5075321;28;20217;-60
2023/07/09 08:00:58;;;;;;;5.93;5.10;;;28.40;47.00;;;31.22;32.80;101814.81;5058497;28;20233;-60
2023/07/09 08:03:25;;;;;;;5.37;4.93;;;28.40;46.90;;;31.33;32.16;101822.59;5055536;28;20194;-57
2023/07/09 08:05:53;;;;;;;5.10;4.60;;;28.50;47.00;;;31.42;32.65;101817.34;5054635;28;20212;-59
2023/07/09 08:08:20;;;;;;;5.33;4.83;;;28.60;47.00;;;31.48;32.67;101816.22;5055001;28;20204;-58
2023/07/09 08:10:49;;;;;;;5.50;5.10;;;28.70;46.60;;;31.52;32.38;101825.47;5054355;28;20567;-60
2023/07/09 08:13:18;;;;;;;6.93;5.07;;;28.80;46.50;;;31.55;32.42;101830.31;5054455;28;20271;-58
2023/07/09 08:15:46;;;;;;;5.60;5.20;;;28.80;46.30;;;31.66;31.61;101829.13;5054804;28;20273;-57
2023/07/09 08:18:13;;;;;;;7.10;5.97;;;28.90;46.30;;;31.83;31.41;101825.94;5054621;28;20194;-58
2023/07/09 08:20:44;;;;;;;5.57;5.17;;;28.90;45.50;;;32.32;30.96;101829.16;5054451;28;20271;-60
2023/07/09 08:23:11;;;;;;;5.37;4.97;;;29.10;45.40;;;32.92;29.56;101827.50;5054702;28;20210;-57
2023/07/09 08:25:37;;;;;;;5.53;4.87;;;29.30;44.60;;;33.70;28.86;101826.72;5054682;28;20629;-58
2023/07/09 08:28:04;;;;;;;5.03;4.63;;;29.70;44.00;;;34.50;27.98;101819.56;5055881;28;20205;-56
2023/07/09 08:30:34;;;;;;;5.70;5.10;;;30.10;43.90;;;35.08;26.60;101821.53;5074207;28;20213;-59
2023/07/09 08:33:01;;;;;;;6.22;5.63;;;30.60;41.60;;;35.38;26.67;101826.19;5074726;28;20225;-59
2023/07/09 08:35:28;;;;;;;6.15;5.55;;;31.10;40.80;;;35.22;26.80;101822.25;5074725;28;20196;-59
2023/07/09 08:38:03;;;;;;;5.70;5.30;;;31.30;39.90;;;35.30;26.52;101826.97;5074671;28;20590;-57
2023/07/09 08:40:31;;;;;;;6.00;4.80;;;31.50;39.60;;;35.53;25.87;101819.53;5073802;28;20788;-57
2023/07/09 08:43:15;;;;;;;6.68;5.75;;;31.70;39.60;;;35.80;25.56;101824.81;5074402;28;20258;-59
2023/07/09 08:45:55;;;;;;;5.05;4.65;;;31.90;38.60;;;36.11;25.22;101825.59;5074473;28;20295;-58
2023/07/09 08:48:30;;;;;;;5.40;5.00;;;32.10;38.10;;;36.68;24.29;101829.06;5071817;28;20284;-59
2023/07/09 08:51:07;;;;;;;4.82;4.45;;;32.40;38.00;;;37.45;24.30;101820.69;5061140;28;20263;-56
2023/07/09 08:53:48;;;;;;;6.05;5.55;;;32.70;38.40;;;38.20;23.38;101824.56;5073726;28;20533;-59
2023/07/09 08:56:17;;;;;;;6.22;5.57;;;33.20;37.10;;;38.72;22.44;101825.00;5074031;28;20295;-58
2023/07/09 08:58:46;;;;;;;5.97;5.07;;;33.60;35.90;;;39.28;22.51;101827.03;5073869;28;20610;-57
2023/07/09 09:01:21;;;;;;;5.72;5.22;;;34.10;35.80;;;39.76;21.85;101823.53;5054919;28;20193;-59
2023/07/09 09:03:52;;;;;;;5.32;4.82;;;34.40;34.20;;;40.37;21.14;101821.50;5054375;28;20173;-59
2023/07/09 09:06:25;;;;;;;5.80;4.88;;;34.90;34.40;;;40.99;20.83;101819.00;5053648;28;20217;-57
2023/07/09 09:09:11;;;;;;;6.20;5.60;;;35.30;33.10;;;41.27;19.82;101823.69;5053791;28;20209;-56
2023/07/09 09:11:45;;;;;;;5.10;4.80;;;35.70;32.30;;;41.52;19.79;101809.34;5053822;28;20276;-59
2023/07/09 09:14:29;;;;;;;4.90;4.60;;;36.10;31.80;;;41.94;19.86;101812.34;5053943;28;20240;-59
2023/07/09 09:16:59;;;;;;;5.45;5.03;;;36.50;31.50;;;42.37;19.56;101811.31;5053616;28;20700;-59
2023/07/09 09:19:36;;;;;;;4.43;4.03;;;36.90;31.10;;;43.01;19.05;101802.34;5053618;28;20214;-60
2023/07/09 09:22:09;;;;;;;5.30;4.90;;;37.20;31.10;;;43.56;18.01;101812.81;5053601;28;20201;-63
2023/07/09 09:24:53;;;;;;;6.03;5.53;;;37.60;29.60;;;43.52;17.70;101808.38;5056107;28;20193;-58
2023/07/09 09:27:20;;;;;;;5.45;5.00;;;37.80;28.80;;;43.54;17.67;101801.28;5073786;28;20193;-61
2023/07/09 09:29:47;;;;;;;5.40;5.00;;;38.00;28.60;;;43.66;17.92;101800.28;5073640;28;20329;-59
2023/07/09 09:32:24;;;;;;;4.78;4.47;;;38.20;28.70;;;44.08;18.04;101794.59;5073762;28;20535;-59
2023/07/09 09:34:52;;;;;;;5.65;5.25;;;38.40;29.30;;;44.22;16.92;101789.22;5059154;28;20255;-60
2023/07/09 09:37:29;;;;;;;6.22;5.63;;;38.50;28.20;;;44.14;17.33;101785.56;5052516;28;20217;-59
2023/07/09 09:39:59;;;;;;;6.30;5.65;;;38.70;27.80;;;44.11;17.20;101794.63;5053084;28;20217;-60
2023/07/09 09:42:44;;;;;;;5.57;5.07;;;38.80;27.80;;;44.23;17.25;101801.94;5053549;28;20201;-60
2023/07/09 09:45:17;;;;;;;6.32;5.47;;;38.90;27.30;;;44.12;16.60;101801.00;5052864;28;20209;-60
2023/07/09 09:47:47;;;;;;;4.50;4.20;;;39.00;26.40;;;44.07;17.22;101804.09;5053119;28;20269;-59
2023/07/09 09:50:15;;;;;;;6.40;5.05;;;39.10;27.20;;;44.02;16.83;101805.22;5053677;28;20220;-59
2023/07/09 09:52:45;;;;;;;4.57;4.28;;;39.10;27.10;;;44.13;16.68;101792.28;5073010;28;20268;-59
2023/07/09 09:55:18;;;;;;;5.55;4.93;;;39.10;26.50;;;44.44;16.51;101799.41;5072929;28;20653;-59
2023/07/09 09:57:50;;;;;;;5.63;5.20;;;39.20;26.60;;;44.56;16.06;101801.97;5073074;28;20200;-62
2023/07/09 10:00:21;;;;;;;6.10;5.47;;;39.30;26.10;;;44.76;15.84;101797.81;5060949;28;20287;-60
2023/07/09 10:02:49;;;;;;;5.82;5.32;;;39.30;25.70;;;44.77;15.35;101796.63;5053163;28;20268;-60
2023/07/09 10:05:27;;;;;;;5.25;4.90;;;39.40;25.50;;;44.82;16.10;101789.91;5053206;28;20263;-60
2023/07/09 10:08:03;;;;;;;4.85;4.45;;;39.50;25.60;;;45.08;15.71;101791.81;5053120;28;20244;-59
2023/07/09 10:10:33;;;;;;;5.45;4.95;;;39.60;26.00;;;45.50;15.89;101792.94;5052718;28;20215;-59
2023/07/09 10:13:15;;;;;;;5.68;5.25;;;39.70;25.50;;;45.50;14.88;101790.16;5053030;28;20245;-58
2023/07/09 10:16:01;;;;;;;5.18;4.75;;;39.80;25.20;;;45.27;15.48;101791.56;5053221;28;20192;-60
2023/07/09 10:18:48;;;;;;;5.75;5.20;;;39.80;25.60;;;45.21;15.79;101790.31;5053168;28;20212;-60
2023/07/09 10:21:24;;;;;;;5.60;5.10;;;39.80;25.30;;;45.02;16.21;101783.81;5059624;28;20192;-59
2023/07/09 10:24:08;;;;;;;4.70;4.35;;;39.90;25.70;;;44.89;15.73;101790.81;5072650;28;20199;-59